Página principal
METAR-TAF:

METAR-TAF

Aeroportos :

Tenerife Sul, Espanha

Aeroporto de Tenerife Sul

latitude: 28-03N, longitude: 016-34W, altura: 64 m

Observação actual do tempo

O boletim foi feito há 20 minutos, às 04:30 UTC
Vento 7 kt de oes-noroeste
Temperatura 20°C
Humidade 78%
Pressão 1016 hPa
Visibilidade 10 km ou mais
Poucas nuvensa uma altura de 3500 ft

METAR: GCTS 230430Z 30007KT 9999 FEW035 20/16 Q1016 NOSIG

Hora: 05:50 (04:50 UTC)

Previsão

O boletim foi feito há 2 horas e 50 minutos, às 02:00 UTC
Previsão válida de 23 às 03 UTC a 24 às 03 UTC
Vento 6 kt de sudoeste
Visibilidade 10 km ou mais
Nuvens dispersasa uma altura de 3500 ft
Probabilidade 40%
de 23 às 10 UTC a 23 às 16 UTC
Vento 14 kt de este

TAF: GCTS 230200Z 2303/2403 22006KT 9999 SCT035 TX27/2314Z TN19/2306Z PROB40 2310/2316 08014KT

Observações e previsões do tempo de mais de 4000 aeroportos (mensagens METAR e TAF).

As estações disponíveis são os pontos amarelos e vermelhos sobre o mapa.

Mova o rato sobre o mapa para ver o nome da estação.

Depois clique no ponto para visualizar as observações e previsões meteorológicas.

Para alterar o mapa : clique nos botões verdes com uma cruz preta para aumentar o zoom; no botão verde com uma pitada de zoom; ou nas setas verdes para mapas adjacentes.


METAR-TAF: